Stanton, Michigan
Current Conditions -  °F | °C
As of 1:50 AM on Sunday 21 Dec 2014 (Local Time) from KAMN Reporting Station
Overcast Overcast  
Wind Chill: 28°   Ceiling: 3000
Heat Index: 28°   Visibility: 7mi
Dew Point: 26°   Wind: 3mph
Humidity: 89%   Direction: 170°S
Pressure: 30.26"   Gusts: NA
Location:  43.29°N, 85.08°W
Report Text: KAMN 210650Z AUTO 17003KT 7SM OVC030 M02/M04 A3026 RMK AO2 T10201036
Loading
Personal Weather Stations






























Interactive Weather Map New forecast layout! Learn more

10-Day Weather Forecast

Advertisements
Track Severe Weather on mobile